sensor_id;sensor_type;location;lat;lon;timestamp;pressure;altitude;pressure_sealevel;temperature;humidity
31483;BME280;18103;52.246;8.052;2023-03-23T00:00:08;99174.59;;;10.85;90.59
31483;BME280;18103;52.246;8.052;2023-03-23T00:02:36;99178.22;;;10.84;90.64
31483;BME280;18103;52.246;8.052;2023-03-23T00:05:04;99177.78;;;10.89;90.28
31483;BME280;18103;52.246;8.052;2023-03-23T00:07:30;99169.88;;;10.89;90.21
31483;BME280;18103;52.246;8.052;2023-03-23T00:09:56;99173.78;;;10.85;90.61
31483;BME280;18103;52.246;8.052;2023-03-23T00:12:26;99168.50;;;10.85;90.81
31483;BME280;18103;52.246;8.052;2023-03-23T00:15:05;99169.31;;;10.85;90.77
31483;BME280;18103;52.246;8.052;2023-03-23T00:17:32;99149.06;;;10.86;90.45
31483;BME280;18103;52.246;8.052;2023-03-23T00:19:58;99162.59;;;10.91;90.25
31483;BME280;18103;52.246;8.052;2023-03-23T00:22:27;99158.63;;;10.87;90.23
31483;BME280;18103;52.246;8.052;2023-03-23T00:24:55;99141.13;;;10.86;90.38
31483;BME280;18103;52.246;8.052;2023-03-23T00:27:21;99142.78;;;10.87;90.10
31483;BME280;18103;52.246;8.052;2023-03-23T00:29:49;99153.34;;;10.87;90.44
31483;BME280;18103;52.246;8.052;2023-03-23T00:32:18;99139.47;;;10.85;90.39
31483;BME280;18103;52.246;8.052;2023-03-23T00:34:54;99144.44;;;10.88;90.23
31483;BME280;18103;52.246;8.052;2023-03-23T00:37:20;99133.22;;;10.86;90.54
31483;BME280;18103;52.246;8.052;2023-03-23T00:39:49;99129.28;;;10.90;90.78
31483;BME280;18103;52.246;8.052;2023-03-23T00:42:27;99122.66;;;10.86;90.50
31483;BME280;18103;52.246;8.052;2023-03-23T00:44:53;99130.41;;;10.87;90.68
31483;BME280;18103;52.246;8.052;2023-03-23T00:47:25;99137.50;;;10.87;90.66
31483;BME280;18103;52.246;8.052;2023-03-23T00:49:52;99127.25;;;10.84;90.44
31483;BME280;18103;52.246;8.052;2023-03-23T00:52:20;99122.78;;;10.84;90.47
31483;BME280;18103;52.246;8.052;2023-03-23T00:54:46;99137.34;;;10.88;90.27
31483;BME280;18103;52.246;8.052;2023-03-23T00:57:11;99126.66;;;10.90;90.42
31483;BME280;18103;52.246;8.052;2023-03-23T00:59:37;99130.69;;;10.84;90.56
31483;BME280;18103;52.246;8.052;2023-03-23T01:02:02;99127.09;;;10.85;90.21
31483;BME280;18103;52.246;8.052;2023-03-23T01:04:30;99123.63;;;10.85;90.09
31483;BME280;18103;52.246;8.052;2023-03-23T01:07:04;99116.03;;;10.82;90.41
31483;BME280;18103;52.246;8.052;2023-03-23T01:09:33;99115.41;;;10.88;90.29
31483;BME280;18103;52.246;8.052;2023-03-23T01:12:01;99121.66;;;10.87;90.46
31483;BME280;18103;52.246;8.052;2023-03-23T01:14:26;99123.00;;;10.91;89.92
31483;BME280;18103;52.246;8.052;2023-03-23T01:16:52;99107.63;;;10.86;89.96
31483;BME280;18103;52.246;8.052;2023-03-23T01:19:17;99098.59;;;10.89;89.49
31483;BME280;18103;52.246;8.052;2023-03-23T01:21:43;99102.03;;;10.89;89.76
31483;BME280;18103;52.246;8.052;2023-03-23T01:24:12;99099.09;;;10.92;89.58
31483;BME280;18103;52.246;8.052;2023-03-23T01:26:37;99108.44;;;10.87;89.60
31483;BME280;18103;52.246;8.052;2023-03-23T01:29:05;99113.28;;;10.91;89.36
31483;BME280;18103;52.246;8.052;2023-03-23T01:31:30;99093.75;;;10.84;89.54
31483;BME280;18103;52.246;8.052;2023-03-23T01:33:58;99090.97;;;10.86;89.41
31483;BME280;18103;52.246;8.052;2023-03-23T01:36:27;99078.59;;;10.86;89.39
31483;BME280;18103;52.246;8.052;2023-03-23T01:38:54;99068.03;;;10.86;89.27
31483;BME280;18103;52.246;8.052;2023-03-23T01:41:23;99077.91;;;10.84;89.26
31483;BME280;18103;52.246;8.052;2023-03-23T01:46:33;99093.66;;;10.94;88.99
31483;BME280;18103;52.246;8.052;2023-03-23T01:49:12;99090.66;;;10.89;88.95
31483;BME280;18103;52.246;8.052;2023-03-23T01:51:59;99086.91;;;10.91;88.83
31483;BME280;18103;52.246;8.052;2023-03-23T01:54:27;99084.25;;;10.91;89.03
31483;BME280;18103;52.246;8.052;2023-03-23T01:57:06;99072.84;;;10.91;88.54
31483;BME280;18103;52.246;8.052;2023-03-23T01:59:34;99082.22;;;10.85;88.88
31483;BME280;18103;52.246;8.052;2023-03-23T02:02:01;99056.69;;;10.94;88.62
31483;BME280;18103;52.246;8.052;2023-03-23T02:04:28;99061.53;;;10.99;88.21
31483;BME280;18103;52.246;8.052;2023-03-23T02:06:55;99050.75;;;10.92;88.40
31483;BME280;18103;52.246;8.052;2023-03-23T02:09:25;99062.28;;;10.91;88.26
31483;BME280;18103;52.246;8.052;2023-03-23T02:11:52;99064.31;;;10.97;87.81
31483;BME280;18103;52.246;8.052;2023-03-23T02:14:18;99062.66;;;10.96;88.18
31483;BME280;18103;52.246;8.052;2023-03-23T02:17:30;99064.78;;;10.92;88.42
31483;BME280;18103;52.246;8.052;2023-03-23T02:38:44;99048.66;;;10.95;87.58
31483;BME280;18103;52.246;8.052;2023-03-23T02:41:21;99034.00;;;11.01;87.71
31483;BME280;18103;52.246;8.052;2023-03-23T02:43:49;99038.59;;;10.99;87.56
31483;BME280;18103;52.246;8.052;2023-03-23T02:46:17;99029.69;;;11.00;87.18
31483;BME280;18103;52.246;8.052;2023-03-23T02:48:46;99033.16;;;11.01;87.68
31483;BME280;18103;52.246;8.052;2023-03-23T02:51:19;99026.56;;;11.05;87.34
31483;BME280;18103;52.246;8.052;2023-03-23T02:53:50;99018.16;;;11.01;87.44
31483;BME280;18103;52.246;8.052;2023-03-23T02:56:17;99018.31;;;11.00;87.34
31483;BME280;18103;52.246;8.052;2023-03-23T02:58:44;99031.84;;;11.05;87.08
31483;BME280;18103;52.246;8.052;2023-03-23T03:04:00;99026.94;;;11.10;86.89
31483;BME280;18103;52.246;8.052;2023-03-23T03:06:57;99028.22;;;11.06;86.63
31483;BME280;18103;52.246;8.052;2023-03-23T03:09:40;99027.09;;;11.08;86.82
31483;BME280;18103;52.246;8.052;2023-03-23T03:12:35;99015.19;;;11.04;86.48
31483;BME280;18103;52.246;8.052;2023-03-23T03:15:10;99001.50;;;11.09;86.42
31483;BME280;18103;52.246;8.052;2023-03-23T03:17:41;98983.88;;;11.09;86.55
31483;BME280;18103;52.246;8.052;2023-03-23T03:20:11;98970.97;;;11.06;86.43
31483;BME280;18103;52.246;8.052;2023-03-23T03:22:41;98980.22;;;11.10;86.22
31483;BME280;18103;52.246;8.052;2023-03-23T03:25:10;98973.75;;;11.05;86.02
31483;BME280;18103;52.246;8.052;2023-03-23T03:27:42;98983.19;;;11.07;86.12
31483;BME280;18103;52.246;8.052;2023-03-23T03:30:10;98962.06;;;11.07;85.84
31483;BME280;18103;52.246;8.052;2023-03-23T03:32:41;98969.00;;;11.08;85.87
31483;BME280;18103;52.246;8.052;2023-03-23T03:35:14;98974.28;;;11.08;85.78
31483;BME280;18103;52.246;8.052;2023-03-23T03:37:41;98972.94;;;11.04;85.09
31483;BME280;18103;52.246;8.052;2023-03-23T03:40:11;98965.06;;;11.12;84.58
31483;BME280;18103;52.246;8.052;2023-03-23T03:42:41;98969.81;;;11.09;84.40
31483;BME280;18103;52.246;8.052;2023-03-23T03:45:13;98979.88;;;11.05;83.66
31483;BME280;18103;52.246;8.052;2023-03-23T03:47:38;98973.59;;;11.06;84.24
31483;BME280;18103;52.246;8.052;2023-03-23T03:50:04;98967.00;;;11.10;83.53
31483;BME280;18103;52.246;8.052;2023-03-23T03:52:31;98975.41;;;11.06;83.87
31483;BME280;18103;52.246;8.052;2023-03-23T03:54:59;98969.97;;;11.07;83.60
31483;BME280;18103;52.246;8.052;2023-03-23T03:57:26;98975.59;;;11.04;83.84
31483;BME280;18103;52.246;8.052;2023-03-23T03:59:54;98981.72;;;11.13;83.17
31483;BME280;18103;52.246;8.052;2023-03-23T04:02:22;98973.59;;;11.06;83.40
31483;BME280;18103;52.246;8.052;2023-03-23T04:04:50;98977.25;;;11.05;83.39
31483;BME280;18103;52.246;8.052;2023-03-23T04:07:18;98983.81;;;11.01;83.25
31483;BME280;18103;52.246;8.052;2023-03-23T04:09:47;98984.84;;;11.08;82.65
31483;BME280;18103;52.246;8.052;2023-03-23T04:12:13;98982.22;;;11.08;82.98
31483;BME280;18103;52.246;8.052;2023-03-23T04:14:39;99002.16;;;11.03;83.43
31483;BME280;18103;52.246;8.052;2023-03-23T04:17:04;99005.66;;;11.11;82.95
31483;BME280;18103;52.246;8.052;2023-03-23T04:19:29;99012.38;;;11.06;83.29
31483;BME280;18103;52.246;8.052;2023-03-23T04:21:58;98991.47;;;11.12;83.17
31483;BME280;18103;52.246;8.052;2023-03-23T04:24:23;98998.09;;;11.17;83.24
31483;BME280;18103;52.246;8.052;2023-03-23T04:26:51;99000.53;;;11.10;83.57
31483;BME280;18103;52.246;8.052;2023-03-23T04:29:20;98998.69;;;11.10;83.60
31483;BME280;18103;52.246;8.052;2023-03-23T04:31:45;98996.91;;;11.11;83.62
31483;BME280;18103;52.246;8.052;2023-03-23T04:34:15;99002.25;;;11.19;83.53
31483;BME280;18103;52.246;8.052;2023-03-23T04:36:41;99002.03;;;11.12;83.80
31483;BME280;18103;52.246;8.052;2023-03-23T04:39:07;98998.09;;;11.17;83.67
31483;BME280;18103;52.246;8.052;2023-03-23T04:41:38;99003.53;;;11.23;83.33
31483;BME280;18103;52.246;8.052;2023-03-23T04:44:04;98994.31;;;11.19;83.61
31483;BME280;18103;52.246;8.052;2023-03-23T04:46:33;98992.00;;;11.24;83.29
31483;BME280;18103;52.246;8.052;2023-03-23T04:49:02;98997.97;;;11.26;83.38
31483;BME280;18103;52.246;8.052;2023-03-23T04:51:30;98996.63;;;11.22;83.56
31483;BME280;18103;52.246;8.052;2023-03-23T04:53:58;98991.19;;;11.24;83.69
31483;BME280;18103;52.246;8.052;2023-03-23T04:56:24;98992.31;;;11.21;83.74
31483;BME280;18103;52.246;8.052;2023-03-23T04:58:49;98985.06;;;11.23;83.81
31483;BME280;18103;52.246;8.052;2023-03-23T05:01:14;98993.16;;;11.22;83.79
31483;BME280;18103;52.246;8.052;2023-03-23T05:03:45;98991.19;;;11.24;84.07
31483;BME280;18103;52.246;8.052;2023-03-23T05:06:13;98976.00;;;11.26;83.73
31483;BME280;18103;52.246;8.052;2023-03-23T05:08:41;98983.31;;;11.32;83.77
31483;BME280;18103;52.246;8.052;2023-03-23T05:11:08;98969.56;;;11.28;83.71
31483;BME280;18103;52.246;8.052;2023-03-23T05:13:34;98975.69;;;11.29;83.65
31483;BME280;18103;52.246;8.052;2023-03-23T05:16:05;98974.03;;;11.28;83.51
31483;BME280;18103;52.246;8.052;2023-03-23T05:18:30;98969.72;;;11.27;83.93
31483;BME280;18103;52.246;8.052;2023-03-23T05:21:01;98976.69;;;11.28;83.87
31483;BME280;18103;52.246;8.052;2023-03-23T05:23:27;98965.78;;;11.31;83.60
31483;BME280;18103;52.246;8.052;2023-03-23T05:25:54;98967.44;;;11.32;83.50
31483;BME280;18103;52.246;8.052;2023-03-23T05:28:22;98974.84;;;11.28;83.58
31483;BME280;18103;52.246;8.052;2023-03-23T05:30:48;98966.44;;;11.33;83.17
31483;BME280;18103;52.246;8.052;2023-03-23T05:33:14;98979.97;;;11.30;83.50
31483;BME280;18103;52.246;8.052;2023-03-23T05:35:40;98981.47;;;11.33;83.55
31483;BME280;18103;52.246;8.052;2023-03-23T05:38:05;98992.69;;;11.26;84.07
31483;BME280;18103;52.246;8.052;2023-03-23T05:40:30;98973.72;;;11.31;83.60
31483;BME280;18103;52.246;8.052;2023-03-23T05:42:56;98989.56;;;11.31;83.23
31483;BME280;18103;52.246;8.052;2023-03-23T05:45:24;98990.22;;;11.33;83.42
31483;BME280;18103;52.246;8.052;2023-03-23T05:47:50;98981.13;;;11.27;83.45
31483;BME280;18103;52.246;8.052;2023-03-23T05:50:15;98983.13;;;11.34;83.08
31483;BME280;18103;52.246;8.052;2023-03-23T05:52:42;98986.91;;;11.31;83.19
31483;BME280;18103;52.246;8.052;2023-03-23T05:55:12;98978.66;;;11.34;83.24
31483;BME280;18103;52.246;8.052;2023-03-23T05:57:39;98981.47;;;11.33;83.44
31483;BME280;18103;52.246;8.052;2023-03-23T06:00:05;98985.25;;;11.30;83.88
31483;BME280;18103;52.246;8.052;2023-03-23T06:02:46;98994.69;;;11.33;83.30
31483;BME280;18103;52.246;8.052;2023-03-23T06:05:12;98976.38;;;11.39;82.87
31483;BME280;18103;52.246;8.052;2023-03-23T06:07:41;98978.34;;;11.37;82.97
31483;BME280;18103;52.246;8.052;2023-03-23T06:10:07;98987.28;;;11.36;82.78
31483;BME280;18103;52.246;8.052;2023-03-23T06:12:34;98987.28;;;11.36;82.75
31483;BME280;18103;52.246;8.052;2023-03-23T06:15:00;98992.44;;;11.46;82.37
31483;BME280;18103;52.246;8.052;2023-03-23T06:17:28;99002.28;;;11.36;83.22
31483;BME280;18103;52.246;8.052;2023-03-23T06:19:53;98991.91;;;11.42;82.78
31483;BME280;18103;52.246;8.052;2023-03-23T06:22:23;98997.03;;;11.44;82.86
31483;BME280;18103;52.246;8.052;2023-03-23T06:24:48;98978.91;;;11.49;82.70
31483;BME280;18103;52.246;8.052;2023-03-23T06:27:16;98994.41;;;11.44;82.53
31483;BME280;18103;52.246;8.052;2023-03-23T06:29:42;99007.81;;;11.51;82.00
31483;BME280;18103;52.246;8.052;2023-03-23T06:32:10;99003.34;;;11.51;82.22
31483;BME280;18103;52.246;8.052;2023-03-23T06:34:39;99004.66;;;11.55;82.16
31483;BME280;18103;52.246;8.052;2023-03-23T06:37:08;99014.41;;;11.55;82.07
31483;BME280;18103;52.246;8.052;2023-03-23T06:39:37;99013.94;;;11.59;82.12
31483;BME280;18103;52.246;8.052;2023-03-23T06:42:03;99020.22;;;11.58;81.77
31483;BME280;18103;52.246;8.052;2023-03-23T06:44:29;99025.03;;;11.63;81.78
31483;BME280;18103;52.246;8.052;2023-03-23T06:46:54;99023.38;;;11.62;81.87
31483;BME280;18103;52.246;8.052;2023-03-23T06:49:20;99017.44;;;11.60;81.70
31483;BME280;18103;52.246;8.052;2023-03-23T06:51:47;99013.13;;;11.59;81.61
31483;BME280;18103;52.246;8.052;2023-03-23T06:54:13;99004.88;;;11.62;81.65
31483;BME280;18103;52.246;8.052;2023-03-23T06:56:41;99002.25;;;11.70;80.91
31483;BME280;18103;52.246;8.052;2023-03-23T06:59:06;99000.13;;;11.74;80.98
31483;BME280;18103;52.246;8.052;2023-03-23T07:01:32;99003.59;;;11.82;81.03
31483;BME280;18103;52.246;8.052;2023-03-23T07:03:57;98998.47;;;11.81;81.30
31483;BME280;18103;52.246;8.052;2023-03-23T07:06:26;99001.63;;;11.93;80.86
31483;BME280;18103;52.246;8.052;2023-03-23T07:08:54;99010.28;;;11.95;80.00
31483;BME280;18103;52.246;8.052;2023-03-23T07:11:19;99025.50;;;12.09;80.33
31483;BME280;18103;52.246;8.052;2023-03-23T07:13:45;99012.94;;;12.20;79.79
31483;BME280;18103;52.246;8.052;2023-03-23T07:16:11;99000.22;;;12.31;78.64
31483;BME280;18103;52.246;8.052;2023-03-23T07:18:39;98999.06;;;12.26;79.46
31483;BME280;18103;52.246;8.052;2023-03-23T07:21:05;99001.53;;;12.27;79.50
31483;BME280;18103;52.246;8.052;2023-03-23T07:23:31;98999.41;;;12.23;79.23
31483;BME280;18103;52.246;8.052;2023-03-23T07:25:58;99025.34;;;12.27;79.27
31483;BME280;18103;52.246;8.052;2023-03-23T07:28:24;99023.69;;;12.26;79.04
31483;BME280;18103;52.246;8.052;2023-03-23T07:30:50;99032.44;;;12.27;79.25
31483;BME280;18103;52.246;8.052;2023-03-23T07:33:16;99015.41;;;12.29;78.52
31483;BME280;18103;52.246;8.052;2023-03-23T07:35:41;99011.97;;;12.29;79.08
31483;BME280;18103;52.246;8.052;2023-03-23T07:38:09;99030.16;;;12.32;78.32
31483;BME280;18103;52.246;8.052;2023-03-23T07:40:35;99029.97;;;12.33;78.76
31483;BME280;18103;52.246;8.052;2023-03-23T07:43:02;99032.16;;;12.38;78.39
31483;BME280;18103;52.246;8.052;2023-03-23T07:45:28;99037.75;;;12.43;78.13
31483;BME280;18103;52.246;8.052;2023-03-23T07:47:56;99023.19;;;12.47;77.42
31483;BME280;18103;52.246;8.052;2023-03-23T07:50:22;99026.19;;;12.53;77.92
31483;BME280;18103;52.246;8.052;2023-03-23T07:52:54;99041.72;;;12.47;78.32
31483;BME280;18103;52.246;8.052;2023-03-23T07:55:20;99049.03;;;12.62;78.18
31483;BME280;18103;52.246;8.052;2023-03-23T07:57:48;99048.19;;;12.61;77.33
31483;BME280;18103;52.246;8.052;2023-03-23T08:00:16;99047.84;;;12.56;77.66
31483;BME280;18103;52.246;8.052;2023-03-23T08:02:47;99061.41;;;12.61;77.21
31483;BME280;18103;52.246;8.052;2023-03-23T08:05:14;99056.78;;;12.55;77.76
31483;BME280;18103;52.246;8.052;2023-03-23T08:07:42;99064.91;;;12.54;77.51
31483;BME280;18103;52.246;8.052;2023-03-23T08:10:09;99065.06;;;12.52;77.34
31483;BME280;18103;52.246;8.052;2023-03-23T08:12:36;99059.63;;;12.54;77.95
31483;BME280;18103;52.246;8.052;2023-03-23T08:15:05;99069.19;;;12.55;77.95
31483;BME280;18103;52.246;8.052;2023-03-23T08:17:31;99073.66;;;12.46;77.69
31483;BME280;18103;52.246;8.052;2023-03-23T08:19:58;99070.66;;;12.49;77.66
31483;BME280;18103;52.246;8.052;2023-03-23T08:22:23;99062.25;;;12.54;77.09
31483;BME280;18103;52.246;8.052;2023-03-23T08:24:53;99086.56;;;12.57;77.52
31483;BME280;18103;52.246;8.052;2023-03-23T08:27:19;99083.41;;;12.45;78.19
31483;BME280;18103;52.246;8.052;2023-03-23T08:29:47;99073.00;;;12.44;77.61
31483;BME280;18103;52.246;8.052;2023-03-23T08:32:13;99071.34;;;12.43;77.87
31483;BME280;18103;52.246;8.052;2023-03-23T08:34:41;99066.88;;;12.43;77.76
31483;BME280;18103;52.246;8.052;2023-03-23T08:37:09;99069.03;;;12.48;77.66
31483;BME280;18103;52.246;8.052;2023-03-23T08:39:35;99071.00;;;12.46;77.72
31483;BME280;18103;52.246;8.052;2023-03-23T08:42:03;99076.13;;;12.39;78.33
31483;BME280;18103;52.246;8.052;2023-03-23T08:44:31;99082.56;;;12.37;78.21
31483;BME280;18103;52.246;8.052;2023-03-23T08:46:59;99081.91;;;12.35;78.27
31483;BME280;18103;52.246;8.052;2023-03-23T08:49:25;99072.31;;;12.42;77.81
31483;BME280;18103;52.246;8.052;2023-03-23T08:51:54;99073.16;;;12.42;77.80
31483;BME280;18103;52.246;8.052;2023-03-23T08:54:22;99087.41;;;12.58;77.70
31483;BME280;18103;52.246;8.052;2023-03-23T08:56:50;99086.22;;;12.60;77.64
31483;BME280;18103;52.246;8.052;2023-03-23T08:59:16;99091.53;;;12.60;77.72
31483;BME280;18103;52.246;8.052;2023-03-23T09:01:43;99089.88;;;12.59;77.73
31483;BME280;18103;52.246;8.052;2023-03-23T09:04:09;99091.38;;;12.54;77.11
31483;BME280;18103;52.246;8.052;2023-03-23T09:06:39;99094.03;;;12.62;77.13
31483;BME280;18103;52.246;8.052;2023-03-23T09:09:05;99095.19;;;12.59;77.49
31483;BME280;18103;52.246;8.052;2023-03-23T09:11:36;99096.16;;;12.58;77.69
31483;BME280;18103;52.246;8.052;2023-03-23T09:14:03;99104.44;;;12.63;77.75
31483;BME280;18103;52.246;8.052;2023-03-23T09:16:32;99101.63;;;12.57;78.41
31483;BME280;18103;52.246;8.052;2023-03-23T09:18:58;99113.03;;;12.49;78.41
31483;BME280;18103;52.246;8.052;2023-03-23T09:21:25;99110.53;;;12.47;78.42
31483;BME280;18103;52.246;8.052;2023-03-23T09:23:51;99120.78;;;12.50;77.82
31483;BME280;18103;52.246;8.052;2023-03-23T09:26:17;99112.84;;;12.50;77.88
31483;BME280;18103;52.246;8.052;2023-03-23T09:28:42;99120.81;;;12.42;79.04
31483;BME280;18103;52.246;8.052;2023-03-23T09:31:11;99124.75;;;12.46;78.84
31483;BME280;18103;52.246;8.052;2023-03-23T09:33:38;99118.31;;;12.49;78.04
31483;BME280;18103;52.246;8.052;2023-03-23T09:36:06;99130.22;;;12.45;79.18
31483;BME280;18103;52.246;8.052;2023-03-23T09:38:37;99139.47;;;12.41;78.31
31483;BME280;18103;52.246;8.052;2023-03-23T09:41:34;99139.47;;;12.41;77.33
31483;BME280;18103;52.246;8.052;2023-03-23T09:49:43;99175.34;;;11.92;83.12
31483;BME280;18103;52.246;8.052;2023-03-23T09:52:15;99178.81;;;11.67;83.84
31483;BME280;18103;52.246;8.052;2023-03-23T09:54:42;99186.91;;;11.65;84.81
31483;BME280;18103;52.246;8.052;2023-03-23T09:57:20;99177.59;;;11.53;85.18
31483;BME280;18103;52.246;8.052;2023-03-23T10:00:06;99185.59;;;11.43;85.69
31483;BME280;18103;52.246;8.052;2023-03-23T10:07:49;99200.53;;;11.26;87.59
31483;BME280;18103;52.246;8.052;2023-03-23T10:10:15;99205.13;;;11.24;88.01
31483;BME280;18103;52.246;8.052;2023-03-23T10:12:49;99212.31;;;11.13;88.35
31483;BME280;18103;52.246;8.052;2023-03-23T10:15:26;99228.75;;;11.07;87.86
31483;BME280;18103;52.246;8.052;2023-03-23T10:20:24;99225.63;;;10.86;87.05
31483;BME280;18103;52.246;8.052;2023-03-23T10:31:11;99212.09;;;10.71;86.48
31483;BME280;18103;52.246;8.052;2023-03-23T10:33:47;99219.47;;;10.67;87.00
31483;BME280;18103;52.246;8.052;2023-03-23T10:36:26;99192.72;;;10.62;86.50
31483;BME280;18103;52.246;8.052;2023-03-23T10:41:36;99222.03;;;10.77;86.96
31483;BME280;18103;52.246;8.052;2023-03-23T10:44:15;99224.97;;;10.74;87.29
31483;BME280;18103;52.246;8.052;2023-03-23T10:46:51;99231.00;;;10.84;87.20
31483;BME280;18103;52.246;8.052;2023-03-23T10:49:26;99229.69;;;10.80;86.57
31483;BME280;18103;52.246;8.052;2023-03-23T10:52:02;99217.88;;;10.74;86.24
31483;BME280;18103;52.246;8.052;2023-03-23T10:54:36;99202.44;;;10.79;86.15
31483;BME280;18103;52.246;8.052;2023-03-23T10:57:34;99220.59;;;10.83;86.18
31483;BME280;18103;52.246;8.052;2023-03-23T11:00:27;99239.63;;;10.86;86.46
31483;BME280;18103;52.246;8.052;2023-03-23T11:03:06;99243.41;;;11.02;85.99
31483;BME280;18103;52.246;8.052;2023-03-23T11:05:43;99234.66;;;11.01;86.97
31483;BME280;18103;52.246;8.052;2023-03-23T11:08:19;99231.94;;;10.93;86.28
31483;BME280;18103;52.246;8.052;2023-03-23T11:10:57;99232.47;;;10.96;84.90
31483;BME280;18103;52.246;8.052;2023-03-23T11:13:30;99239.88;;;10.93;85.21
31483;BME280;18103;52.246;8.052;2023-03-23T11:15:59;99232.09;;;10.91;85.37
31483;BME280;18103;52.246;8.052;2023-03-23T11:18:39;99232.84;;;10.84;85.70
31483;BME280;18103;52.246;8.052;2023-03-23T11:21:05;99241.97;;;10.89;85.34
31483;BME280;18103;52.246;8.052;2023-03-23T11:23:41;99230.88;;;10.86;86.25
31483;BME280;18103;52.246;8.052;2023-03-23T11:28:53;99233.06;;;10.90;84.41
31483;BME280;18103;52.246;8.052;2023-03-23T11:31:27;99223.78;;;10.86;85.88
31483;BME280;18103;52.246;8.052;2023-03-23T11:34:14;99225.06;;;11.00;85.07
31483;BME280;18103;52.246;8.052;2023-03-23T11:36:51;99231.56;;;10.88;84.07
31483;BME280;18103;52.246;8.052;2023-03-23T11:39:33;99239.88;;;10.93;83.55
31483;BME280;18103;52.246;8.052;2023-03-23T11:42:17;99242.50;;;10.93;83.88
31483;BME280;18103;52.246;8.052;2023-03-23T11:44:48;99261.06;;;10.83;83.04
31483;BME280;18103;52.246;8.052;2023-03-23T11:47:37;99249.78;;;10.81;83.37
31483;BME280;18103;52.246;8.052;2023-03-23T11:50:26;99251.47;;;10.82;82.27
31483;BME280;18103;52.246;8.052;2023-03-23T11:53:13;99241.56;;;10.84;81.61
31483;BME280;18103;52.246;8.052;2023-03-23T11:58:13;99259.06;;;10.85;81.49
31483;BME280;18103;52.246;8.052;2023-03-23T12:00:55;99250.19;;;10.86;80.89
31483;BME280;18103;52.246;8.052;2023-03-23T12:06:10;99232.25;;;10.90;82.14
31483;BME280;18103;52.246;8.052;2023-03-23T12:09:02;99237.66;;;11.06;81.14
31483;BME280;18103;52.246;8.052;2023-03-23T12:12:06;99226.66;;;11.29;81.21
31483;BME280;18103;52.246;8.052;2023-03-23T12:17:19;99221.09;;;11.58;79.56
31483;BME280;18103;52.246;8.052;2023-03-23T12:22:52;99236.03;;;11.94;79.80
31483;BME280;18103;52.246;8.052;2023-03-23T12:31:15;99222.94;;;12.19;78.71
31483;BME280;18103;52.246;8.052;2023-03-23T12:47:44;99237.72;;;12.38;76.52
31483;BME280;18103;52.246;8.052;2023-03-23T12:55:45;99239.97;;;12.75;75.01
31483;BME280;18103;52.246;8.052;2023-03-23T12:58:26;99239.84;;;12.93;75.32
31483;BME280;18103;52.246;8.052;2023-03-23T13:01:00;99245.84;;;13.20;75.73
31483;BME280;18103;52.246;8.052;2023-03-23T13:03:52;99247.50;;;13.13;75.30
31483;BME280;18103;52.246;8.052;2023-03-23T13:06:27;99260.56;;;13.06;74.53
31483;BME280;18103;52.246;8.052;2023-03-23T13:11:57;99258.91;;;13.13;74.41
31483;BME280;18103;52.246;8.052;2023-03-23T13:17:22;99255.94;;;13.33;73.66
31483;BME280;18103;52.246;8.052;2023-03-23T13:20:23;99256.97;;;13.57;74.11
31483;BME280;18103;52.246;8.052;2023-03-23T13:23:13;99248.00;;;13.66;73.33
31483;BME280;18103;52.246;8.052;2023-03-23T13:25:49;99231.28;;;13.57;73.07
31483;BME280;18103;52.246;8.052;2023-03-23T13:28:24;99234.56;;;13.76;72.47
31483;BME280;18103;52.246;8.052;2023-03-23T13:31:27;99234.19;;;13.95;72.38
31483;BME280;18103;52.246;8.052;2023-03-23T13:34:22;99228.50;;;14.15;72.20
31483;BME280;18103;52.246;8.052;2023-03-23T13:36:58;99231.50;;;14.12;71.06
31483;BME280;18103;52.246;8.052;2023-03-23T13:39:30;99229.34;;;14.07;70.08
31483;BME280;18103;52.246;8.052;2023-03-23T13:42:20;99232.59;;;14.26;70.66
31483;BME280;18103;52.246;8.052;2023-03-23T13:50:00;99208.94;;;14.16;69.96
31483;BME280;18103;52.246;8.052;2023-03-23T13:55:19;99199.75;;;14.58;69.31
31483;BME280;18103;52.246;8.052;2023-03-23T14:00:26;99201.75;;;14.87;69.17
31483;BME280;18103;52.246;8.052;2023-03-23T14:03:01;99200.03;;;14.95;68.92
31483;BME280;18103;52.246;8.052;2023-03-23T14:05:32;99192.75;;;14.88;68.46
31483;BME280;18103;52.246;8.052;2023-03-23T14:13:04;99192.78;;;14.57;69.23
31483;BME280;18103;52.246;8.052;2023-03-23T14:15:36;99204.22;;;14.58;68.97
31483;BME280;18103;52.246;8.052;2023-03-23T14:18:03;99214.50;;;14.29;69.85
31483;BME280;18103;52.246;8.052;2023-03-23T14:20:33;99224.50;;;14.19;70.00
31483;BME280;18103;52.246;8.052;2023-03-23T14:23:00;99229.59;;;14.29;70.26
31483;BME280;18103;52.246;8.052;2023-03-23T14:25:31;99228.94;;;14.27;70.50
31483;BME280;18103;52.246;8.052;2023-03-23T14:27:57;99230.91;;;14.33;70.49
31483;BME280;18103;52.246;8.052;2023-03-23T14:30:33;99220.81;;;13.72;71.99
31483;BME280;18103;52.246;8.052;2023-03-23T14:33:06;99221.28;;;13.92;71.90
31483;BME280;18103;52.246;8.052;2023-03-23T14:35:37;99233.50;;;14.01;71.44
31483;BME280;18103;52.246;8.052;2023-03-23T14:38:13;99230.06;;;13.84;71.16
31483;BME280;18103;52.246;8.052;2023-03-23T14:40:39;99225.94;;;13.82;70.89
31483;BME280;18103;52.246;8.052;2023-03-23T14:43:05;99231.59;;;13.71;71.50
31483;BME280;18103;52.246;8.052;2023-03-23T14:45:31;99235.19;;;13.86;71.40
31483;BME280;18103;52.246;8.052;2023-03-23T14:47:59;99240.66;;;14.01;71.84
31483;BME280;18103;52.246;8.052;2023-03-23T14:52:57;99222.63;;;13.88;71.52
31483;BME280;18103;52.246;8.052;2023-03-23T14:55:23;99215.66;;;13.87;70.47
31483;BME280;18103;52.246;8.052;2023-03-23T14:57:51;99211.69;;;13.75;71.30
31483;BME280;18103;52.246;8.052;2023-03-23T15:00:27;99232.09;;;13.74;71.50
31483;BME280;18103;52.246;8.052;2023-03-23T15:02:59;99241.38;;;13.54;72.56
31483;BME280;18103;52.246;8.052;2023-03-23T15:05:29;99252.97;;;13.44;73.48
31483;BME280;18103;52.246;8.052;2023-03-23T15:07:58;99248.50;;;13.28;73.79